Time;durP1;ratioP1;P1;durP2;ratioP2;P2;SDS_P1;SDS_P2;PMS_P1;PMS_P2;Temp;Humidity;BMP_temperature;BMP_pressure;BME280_temperature;BME280_humidity;BME280_pressure;Samples;Min_cycle;Max_cycle;Signal;HPM_P1;HPM_P2
2023/04/05 00:00:19;;;;;;;5.35;3.75;;;;;;;;;;1035463;28;20045;-24
2023/04/05 00:00:49;;;;;;;5.72;2.63;;;;;;;;;;1035417;28;20026;-23
2023/04/05 00:01:20;;;;;;;14.93;4.18;;;;;;;;;;1035696;28;20104;-22
2023/04/05 00:01:52;;;;;;;10.57;3.72;;;;;;;;;;1035189;28;20026;-23
2023/04/05 00:02:23;;;;;;;4.00;2.67;;;;;;;;;;1035299;28;20029;-24
2023/04/05 00:02:54;;;;;;;6.10;2.53;;;;;;;;;;1034305;28;20502;-23
2023/04/05 00:03:25;;;;;;;6.43;4.15;;;;;;;;;;1034715;28;20099;-24
2023/04/05 00:03:59;;;;;;;6.55;4.10;;;;;;;;;;1035444;28;20065;-22
2023/04/05 00:04:33;;;;;;;16.52;2.92;;;;;;;;;;1035872;28;20089;-22
2023/04/05 00:05:04;;;;;;;10.70;2.85;;;;;;;;;;1035595;28;20018;-20
2023/04/05 00:05:35;;;;;;;8.98;3.38;;;;;;;;;;1035397;28;20022;-22
2023/04/05 00:06:06;;;;;;;4.47;3.47;;;;;;;;;;1035566;28;20029;-20
2023/04/05 00:06:38;;;;;;;5.00;3.08;;;;;;;;;;1035079;28;20040;-23
2023/04/05 00:07:11;;;;;;;6.40;4.13;;;;;;;;;;1034553;28;20026;-23
2023/04/05 00:07:46;;;;;;;5.47;3.95;;;;;;;;;;1034537;28;20030;-24
2023/04/05 00:08:23;;;;;;;6.28;3.63;;;;;;;;;;1034880;28;20076;-23
2023/04/05 00:08:57;;;;;;;8.05;2.80;;;;;;;;;;1034354;28;20030;-23
2023/04/05 00:09:27;;;;;;;4.15;2.65;;;;;;;;;;1034975;28;20105;-22
2023/04/05 00:09:58;;;;;;;4.40;2.67;;;;;;;;;;1034941;28;20520;-24
2023/04/05 00:10:30;;;;;;;8.52;3.35;;;;;;;;;;1035561;28;20481;-24
2023/04/05 00:11:00;;;;;;;15.02;2.13;;;;;;;;;;1035700;28;20362;-24
2023/04/05 00:11:31;;;;;;;12.73;3.30;;;;;;;;;;1035423;28;20080;-24
2023/04/05 00:12:02;;;;;;;11.35;4.22;;;;;;;;;;1035518;28;20116;-24
2023/04/05 00:12:32;;;;;;;10.10;3.22;;;;;;;;;;1035088;28;20022;-24
2023/04/05 00:13:03;;;;;;;8.45;3.92;;;;;;;;;;1035667;28;20009;-24
2023/04/05 00:13:33;;;;;;;13.73;4.38;;;;;;;;;;1035414;28;20397;-24
2023/04/05 00:14:04;;;;;;;11.00;2.58;;;;;;;;;;1035525;28;20376;-24
2023/04/05 00:14:34;;;;;;;13.75;2.83;;;;;;;;;;1035349;28;20033;-24
2023/04/05 00:15:05;;;;;;;10.65;4.60;;;;;;;;;;1035674;28;20022;-21
2023/04/05 00:15:36;;;;;;;5.50;2.28;;;;;;;;;;1035287;28;20025;-25
2023/04/05 00:16:07;;;;;;;3.33;2.72;;;;;;;;;;1035442;28;20383;-24
2023/04/05 00:16:37;;;;;;;4.80;3.72;;;;;;;;;;1035371;28;20030;-24
2023/04/05 00:17:08;;;;;;;22.98;4.25;;;;;;;;;;1035697;28;20026;-22
2023/04/05 00:17:39;;;;;;;14.13;5.78;;;;;;;;;;1034255;28;20030;-23
2023/04/05 00:18:20;;;;;;;6.03;2.58;;;;;;;;;;1035642;28;20026;-22
2023/04/05 00:18:51;;;;;;;8.20;5.65;;;;;;;;;;1035343;28;20437;-23
2023/04/05 00:19:22;;;;;;;12.38;2.65;;;;;;;;;;1035466;28;20030;-24
2023/04/05 00:19:56;;;;;;;15.73;3.78;;;;;;;;;;1035383;28;20030;-22
2023/04/05 00:20:28;;;;;;;18.23;4.00;;;;;;;;;;1034834;28;20049;-23
2023/04/05 00:20:58;;;;;;;6.30;3.15;;;;;;;;;;1035432;28;20037;-23
2023/04/05 00:21:29;;;;;;;7.13;2.78;;;;;;;;;;1035489;28;20032;-23
2023/04/05 00:21:59;;;;;;;10.55;3.15;;;;;;;;;;1035431;28;20022;-24
2023/04/05 00:22:34;;;;;;;7.35;4.28;;;;;;;;;;1035275;28;20018;-24
2023/04/05 00:23:05;;;;;;;8.48;3.80;;;;;;;;;;1035247;28;20029;-23
2023/04/05 00:23:38;;;;;;;5.95;3.03;;;;;;;;;;1035280;28;20018;-24
2023/04/05 00:24:14;;;;;;;11.73;5.63;;;;;;;;;;1034596;28;20053;-24
2023/04/05 00:24:44;;;;;;;5.60;4.20;;;;;;;;;;1035429;28;20058;-23
2023/04/05 00:25:15;;;;;;;10.35;4.55;;;;;;;;;;1035609;28;20036;-22
2023/04/05 00:25:46;;;;;;;17.48;3.83;;;;;;;;;;1035160;28;20026;-24
2023/04/05 00:26:17;;;;;;;13.50;4.85;;;;;;;;;;1035692;28;20500;-24
2023/04/05 00:26:48;;;;;;;10.20;5.70;;;;;;;;;;1034817;28;20255;-24
2023/04/05 00:27:19;;;;;;;12.70;3.88;;;;;;;;;;1035278;28;20485;-23
2023/04/05 00:27:50;;;;;;;9.43;3.75;;;;;;;;;;1035257;28;20101;-22
2023/04/05 00:28:21;;;;;;;10.35;3.72;;;;;;;;;;1035671;28;20093;-24
2023/04/05 00:28:52;;;;;;;2.88;2.25;;;;;;;;;;1035168;28;20502;-25
2023/04/05 00:29:23;;;;;;;4.10;3.33;;;;;;;;;;1035677;28;20034;-23
2023/04/05 00:29:53;;;;;;;11.63;5.22;;;;;;;;;;1034322;28;20398;-24
2023/04/05 00:30:24;;;;;;;13.07;2.85;;;;;;;;;;1034549;28;20114;-23
2023/04/05 00:30:55;;;;;;;12.68;4.13;;;;;;;;;;1035383;28;20532;-22
2023/04/05 00:31:25;;;;;;;11.00;3.97;;;;;;;;;;1035562;28;20026;-22
2023/04/05 00:31:56;;;;;;;11.32;2.85;;;;;;;;;;1035308;28;20034;-24
2023/04/05 00:32:26;;;;;;;5.50;2.80;;;;;;;;;;1035636;28;20033;-24
2023/04/05 00:32:57;;;;;;;18.85;4.90;;;;;;;;;;1035519;28;20021;-24
2023/04/05 00:33:27;;;;;;;4.75;2.63;;;;;;;;;;1035633;28;20080;-22
2023/04/05 00:33:58;;;;;;;11.73;5.60;;;;;;;;;;1034461;28;20437;-23
2023/04/05 00:34:29;;;;;;;16.55;2.65;;;;;;;;;;1035082;28;20131;-22
2023/04/05 00:34:59;;;;;;;10.52;4.93;;;;;;;;;;1035438;28;20049;-24
2023/04/05 00:35:30;;;;;;;13.05;4.35;;;;;;;;;;1035349;28;20026;-24
2023/04/05 00:36:12;;;;;;;4.05;2.78;;;;;;;;;;1037086;28;20030;-22
2023/04/05 00:36:43;;;;;;;5.22;2.88;;;;;;;;;;1035697;28;20017;-24
2023/04/05 00:37:13;;;;;;;13.15;3.13;;;;;;;;;;1037153;28;20032;-20
2023/04/05 00:37:44;;;;;;;3.75;2.67;;;;;;;;;;1035805;28;20116;-24
2023/04/05 00:38:15;;;;;;;9.57;5.03;;;;;;;;;;1035627;28;20490;-23
2023/04/05 00:38:47;;;;;;;6.25;3.30;;;;;;;;;;1035222;28;20036;-25
2023/04/05 00:39:17;;;;;;;11.48;3.65;;;;;;;;;;1034994;28;20041;-25
2023/04/05 00:39:48;;;;;;;6.13;3.88;;;;;;;;;;1035073;28;20021;-24
2023/04/05 00:40:18;;;;;;;19.60;3.53;;;;;;;;;;1035666;28;20049;-24
2023/04/05 00:40:49;;;;;;;3.72;2.38;;;;;;;;;;1034456;28;20112;-25
2023/04/05 00:41:19;;;;;;;17.45;4.53;;;;;;;;;;1035120;28;20083;-23
2023/04/05 00:41:50;;;;;;;5.65;3.25;;;;;;;;;;1034864;28;20022;-23
2023/04/05 00:42:20;;;;;;;17.08;3.33;;;;;;;;;;1034340;28;20430;-21
2023/04/05 00:42:51;;;;;;;12.32;4.07;;;;;;;;;;1034819;28;20061;-22
2023/04/05 00:43:22;;;;;;;6.95;3.78;;;;;;;;;;1035316;28;20034;-24
2023/04/05 00:43:52;;;;;;;11.88;2.88;;;;;;;;;;1034817;28;20034;-23
2023/04/05 00:44:23;;;;;;;18.63;3.78;;;;;;;;;;1035465;28;20049;-23
2023/04/05 00:44:53;;;;;;;6.55;2.83;;;;;;;;;;1035185;28;20083;-25
2023/04/05 00:45:24;;;;;;;12.30;1.92;;;;;;;;;;1035846;28;20025;-22
2023/04/05 00:45:55;;;;;;;11.23;5.05;;;;;;;;;;1035351;28;20121;-23
2023/04/05 00:46:25;;;;;;;3.88;2.90;;;;;;;;;;1035655;28;20025;-21
2023/04/05 00:46:56;;;;;;;6.15;3.72;;;;;;;;;;1035532;28;20189;-24
2023/04/05 00:47:26;;;;;;;3.70;2.88;;;;;;;;;;1035675;28;20034;-21
2023/04/05 00:47:57;;;;;;;3.90;3.30;;;;;;;;;;1035356;28;20069;-24
2023/04/05 00:48:28;;;;;;;5.63;3.83;;;;;;;;;;1035601;28;20509;-24
2023/04/05 00:48:58;;;;;;;13.63;2.85;;;;;;;;;;1035613;28;20029;-24
2023/04/05 00:49:30;;;;;;;8.20;3.78;;;;;;;;;;1035480;28;20157;-23
2023/04/05 00:50:01;;;;;;;9.82;2.67;;;;;;;;;;1035649;28;20033;-23
2023/04/05 00:50:32;;;;;;;6.88;4.15;;;;;;;;;;1034774;28;20025;-22
2023/04/05 00:51:03;;;;;;;3.97;2.95;;;;;;;;;;1034983;28;20553;-22
2023/04/05 00:51:34;;;;;;;7.30;4.60;;;;;;;;;;1035383;28;20029;-24
2023/04/05 00:52:05;;;;;;;8.80;3.15;;;;;;;;;;1035685;28;20030;-21
2023/04/05 00:52:40;;;;;;;10.68;4.30;;;;;;;;;;1035063;28;20034;-21
2023/04/05 00:53:11;;;;;;;8.40;2.42;;;;;;;;;;1036251;28;20025;-21
2023/04/05 00:53:41;;;;;;;8.00;3.55;;;;;;;;;;1034334;28;20076;-24
2023/04/05 00:54:12;;;;;;;30.92;3.70;;;;;;;;;;1035125;28;20401;-23
2023/04/05 00:54:43;;;;;;;1.90;1.38;;;;;;;;;;1035182;28;20025;-22
2023/04/05 00:55:14;;;;;;;24.42;4.38;;;;;;;;;;1035320;28;20152;-22
2023/04/05 00:55:47;;;;;;;13.00;5.30;;;;;;;;;;1035291;28;20433;-23
2023/04/05 00:56:20;;;;;;;1.90;1.02;;;;;;;;;;1035095;28;20040;-20
2023/04/05 00:56:54;;;;;;;10.63;2.92;;;;;;;;;;1035139;28;20029;-22
2023/04/05 00:57:25;;;;;;;22.38;3.78;;;;;;;;;;1034113;28;20069;-22
2023/04/05 00:57:55;;;;;;;6.50;2.30;;;;;;;;;;1035850;28;20026;-23
2023/04/05 00:58:26;;;;;;;8.80;2.90;;;;;;;;;;1035286;28;20046;-25
2023/04/05 00:58:56;;;;;;;6.60;3.70;;;;;;;;;;1035463;28;20429;-23
2023/04/05 00:59:30;;;;;;;5.70;2.47;;;;;;;;;;1036263;28;20060;-24
2023/04/05 01:00:06;;;;;;;3.30;2.45;;;;;;;;;;1036281;28;20026;-22
2023/04/05 01:00:37;;;;;;;19.05;2.92;;;;;;;;;;1035666;28;20025;-24
2023/04/05 01:01:18;;;;;;;10.93;2.20;;;;;;;;;;1036294;28;20030;-22
2023/04/05 01:01:59;;;;;;;16.85;3.80;;;;;;;;;;1035585;28;20034;-24
2023/04/05 01:02:32;;;;;;;26.85;3.75;;;;;;;;;;1035556;28;20124;-23
2023/04/05 01:03:05;;;;;;;5.00;3.40;;;;;;;;;;1035301;28;20032;-24
2023/04/05 01:03:37;;;;;;;7.28;4.20;;;;;;;;;;1035864;28;20128;-24
2023/04/05 01:04:10;;;;;;;3.60;2.72;;;;;;;;;;1036275;28;20517;-24
2023/04/05 01:04:48;;;;;;;7.90;3.53;;;;;;;;;;1034842;28;20363;-24
2023/04/05 01:05:25;;;;;;;3.65;2.15;;;;;;;;;;1036952;28;20026;-22
2023/04/05 01:05:58;;;;;;;30.17;5.03;;;;;;;;;;1034959;28;20042;-23
2023/04/05 01:06:42;;;;;;;7.18;4.45;;;;;;;;;;1036106;28;20026;-24
2023/04/05 01:07:19;;;;;;;22.58;7.82;;;;;;;;;;1035335;28;20022;-24
2023/04/05 01:07:55;;;;;;;40.13;7.00;;;;;;;;;;1035713;28;20021;-24
2023/04/05 01:08:26;;;;;;;37.40;5.10;;;;;;;;;;1036058;28;20118;-23
2023/04/05 01:09:05;;;;;;;33.63;4.57;;;;;;;;;;1035960;28;20037;-21
2023/04/05 01:09:51;;;;;;;15.73;4.78;;;;;;;;;;1036064;28;20030;-23
2023/04/05 01:10:24;;;;;;;18.00;5.80;;;;;;;;;;1036296;28;20030;-23
2023/04/05 01:10:56;;;;;;;43.33;4.93;;;;;;;;;;1035617;28;20025;-24
2023/04/05 01:11:27;;;;;;;22.80;2.85;;;;;;;;;;1036171;28;20033;-24
2023/04/05 01:12:00;;;;;;;9.40;4.72;;;;;;;;;;1036168;28;20524;-21
2023/04/05 01:12:32;;;;;;;18.55;5.10;;;;;;;;;;1035273;28;20030;-22
2023/04/05 01:13:02;;;;;;;27.50;6.20;;;;;;;;;;1035263;28;20367;-23
2023/04/05 01:13:33;;;;;;;28.73;5.40;;;;;;;;;;1035982;28;20029;-24
2023/04/05 01:14:03;;;;;;;20.98;3.22;;;;;;;;;;1035800;28;20026;-23
2023/04/05 01:14:48;;;;;;;13.05;5.93;;;;;;;;;;1035452;28;20027;-24
2023/04/05 01:15:19;;;;;;;15.68;5.88;;;;;;;;;;1035696;28;20029;-23
2023/04/05 01:15:50;;;;;;;18.52;5.82;;;;;;;;;;1036026;28;20036;-24
2023/04/05 01:16:20;;;;;;;35.20;7.22;;;;;;;;;;1036024;28;20129;-24
2023/04/05 01:16:56;;;;;;;12.98;4.70;;;;;;;;;;1035383;28;20030;-24
2023/04/05 01:17:35;;;;;;;65.95;6.80;;;;;;;;;;1036088;28;20030;-24
2023/04/05 01:18:09;;;;;;;26.55;5.10;;;;;;;;;;1035742;28;20496;-25
2023/04/05 01:18:45;;;;;;;15.98;4.10;;;;;;;;;;1035761;28;20030;-23
2023/04/05 01:19:16;;;;;;;31.45;5.97;;;;;;;;;;1035989;28;20025;-21
2023/04/05 01:19:52;;;;;;;22.38;4.35;;;;;;;;;;1035840;28;20120;-24
2023/04/05 01:20:24;;;;;;;5.45;3.35;;;;;;;;;;1035975;28;20026;-23
2023/04/05 01:21:19;;;;;;;42.75;6.45;;;;;;;;;;1034749;28;20450;-21
2023/04/05 01:22:12;;;;;;;16.73;4.32;;;;;;;;;;1029651;28;20243;-21
2023/04/05 01:22:50;;;;;;;11.43;3.65;;;;;;;;;;1035247;28;20064;-24
2023/04/05 01:23:23;;;;;;;39.20;5.78;;;;;;;;;;1034318;28;20076;-23
2023/04/05 01:24:11;;;;;;;47.00;8.77;;;;;;;;;;1034587;28;20066;-24
2023/04/05 01:24:57;;;;;;;39.72;4.25;;;;;;;;;;1034846;28;20026;-24
2023/04/05 01:25:35;;;;;;;29.60;6.05;;;;;;;;;;1034759;28;20034;-21
2023/04/05 01:26:22;;;;;;;57.03;7.45;;;;;;;;;;1034379;28;20061;-24
2023/04/05 01:26:53;;;;;;;40.60;7.55;;;;;;;;;;1034108;28;20038;-24
2023/04/05 01:27:47;;;;;;;21.15;6.22;;;;;;;;;;1033957;28;20041;-24
2023/04/05 01:28:38;;;;;;;35.05;7.47;;;;;;;;;;1024534;28;20527;-24
2023/04/05 01:29:27;;;;;;;18.17;3.97;;;;;;;;;;1032727;28;20025;-23
2023/04/05 01:29:57;;;;;;;6.60;3.60;;;;;;;;;;1032766;28;20029;-21
2023/04/05 01:30:34;;;;;;;72.15;7.47;;;;;;;;;;1031798;28;20029;-23
2023/04/05 01:31:28;;;;;;;10.65;5.43;;;;;;;;;;1033148;28;20150;-23
2023/04/05 01:32:00;;;;;;;20.00;3.47;;;;;;;;;;1027391;28;20359;-21
2023/04/05 01:32:31;;;;;;;26.95;6.07;;;;;;;;;;1032577;28;20498;-21
2023/04/05 01:33:22;;;;;;;33.00;5.97;;;;;;;;;;1033851;28;20080;-22
2023/04/05 01:33:57;;;;;;;14.55;4.80;;;;;;;;;;1038405;28;20021;-22
2023/04/05 01:34:38;;;;;;;17.45;3.67;;;;;;;;;;1035342;28;20253;-24
2023/04/05 01:35:12;;;;;;;23.85;5.15;;;;;;;;;;1036007;28;20029;-22
2023/04/05 01:36:03;;;;;;;35.75;6.60;;;;;;;;;;1036000;28;20041;-24
2023/04/05 01:36:39;;;;;;;4.10;3.25;;;;;;;;;;1032282;28;20080;-23
2023/04/05 01:37:14;;;;;;;22.30;4.15;;;;;;;;;;1034735;28;20024;-23
2023/04/05 01:37:48;;;;;;;32.40;4.55;;;;;;;;;;1034589;28;20457;-24
2023/04/05 01:38:26;;;;;;;6.30;3.38;;;;;;;;;;1035784;28;20509;-24
2023/04/05 01:39:00;;;;;;;6.40;3.47;;;;;;;;;;1032068;28;20120;-21
2023/04/05 01:39:33;;;;;;;5.85;3.03;;;;;;;;;;1033456;28;20045;-23
2023/04/05 01:40:05;;;;;;;7.75;3.13;;;;;;;;;;1034734;28;20076;-20
2023/04/05 01:40:37;;;;;;;4.38;3.00;;;;;;;;;;1034329;28;20341;-23
2023/04/05 01:41:08;;;;;;;18.20;4.30;;;;;;;;;;1035231;28;20033;-24
2023/04/05 01:41:39;;;;;;;19.13;6.38;;;;;;;;;;1033419;28;20033;-23
2023/04/05 01:42:09;;;;;;;8.95;5.90;;;;;;;;;;1033286;28;20030;-22
2023/04/05 01:42:42;;;;;;;5.68;2.92;;;;;;;;;;1031891;28;20635;-21
2023/04/05 01:43:14;;;;;;;4.30;2.83;;;;;;;;;;1033066;28;20116;-21
2023/04/05 01:43:44;;;;;;;8.75;2.65;;;;;;;;;;1033288;28;20029;-21
2023/04/05 01:44:15;;;;;;;12.30;5.55;;;;;;;;;;1034709;28;20060;-21
2023/04/05 01:44:45;;;;;;;23.58;4.63;;;;;;;;;;1034946;28;20025;-23
2023/04/05 01:45:16;;;;;;;32.05;4.07;;;;;;;;;;1035150;28;20102;-23
2023/04/05 01:45:46;;;;;;;8.32;3.97;;;;;;;;;;1035410;28;20145;-23
2023/04/05 01:46:17;;;;;;;6.63;3.90;;;;;;;;;;1031991;28;20026;-24
2023/04/05 01:46:47;;;;;;;15.45;3.65;;;;;;;;;;1033438;28;20029;-21
2023/04/05 01:47:19;;;;;;;13.65;3.90;;;;;;;;;;1032971;28;20033;-24
2023/04/05 01:47:50;;;;;;;4.47;4.10;;;;;;;;;;1031086;28;20386;-24
2023/04/05 01:48:20;;;;;;;16.85;4.57;;;;;;;;;;1026709;28;20161;-24
2023/04/05 01:48:51;;;;;;;7.00;2.85;;;;;;;;;;1029387;28;20596;-21
2023/04/05 01:49:22;;;;;;;17.90;4.38;;;;;;;;;;1034174;28;20107;-19
2023/04/05 01:49:52;;;;;;;14.48;4.07;;;;;;;;;;1033879;28;20039;-23
2023/04/05 01:50:23;;;;;;;5.05;3.05;;;;;;;;;;1033055;28;20032;-21
2023/04/05 01:50:54;;;;;;;10.57;3.40;;;;;;;;;;1033341;28;20540;-20
2023/04/05 01:51:25;;;;;;;10.48;2.92;;;;;;;;;;1031551;28;20056;-24
2023/04/05 01:51:55;;;;;;;7.03;5.15;;;;;;;;;;1033592;28;20034;-24
2023/04/05 01:52:27;;;;;;;18.60;5.15;;;;;;;;;;1032706;28;20029;-24
2023/04/05 01:52:57;;;;;;;11.98;4.25;;;;;;;;;;1031886;28;20487;-20
2023/04/05 01:53:28;;;;;;;18.98;3.00;;;;;;;;;;1031757;28;20038;-21
2023/04/05 01:53:58;;;;;;;12.57;5.47;;;;;;;;;;1034408;28;20033;-26
2023/04/05 01:54:29;;;;;;;28.23;4.10;;;;;;;;;;1033563;28;20026;-25
2023/04/05 01:55:02;;;;;;;10.88;5.60;;;;;;;;;;1034279;28;20033;-24
2023/04/05 01:55:32;;;;;;;3.20;2.60;;;;;;;;;;1034883;28;20034;-21
2023/04/05 01:56:03;;;;;;;11.43;3.72;;;;;;;;;;1033054;28;20023;-24
2023/04/05 01:56:34;;;;;;;9.98;3.25;;;;;;;;;;1034875;28;20472;-23
2023/04/05 01:57:05;;;;;;;13.32;4.05;;;;;;;;;;1032200;28;20037;-22
2023/04/05 01:57:35;;;;;;;7.85;3.85;;;;;;;;;;1032881;28;20038;-24
2023/04/05 01:58:06;;;;;;;20.73;7.15;;;;;;;;;;1032678;28;20026;-24
2023/04/05 01:58:37;;;;;;;16.55;5.75;;;;;;;;;;1034147;28;20330;-22
2023/04/05 01:59:08;;;;;;;15.05;4.85;;;;;;;;;;1033728;28;20029;-23
2023/04/05 01:59:38;;;;;;;27.33;6.05;;;;;;;;;;1034431;28;20030;-22
2023/04/05 02:00:10;;;;;;;14.60;6.70;;;;;;;;;;1031320;28;20026;-24
2023/04/05 02:00:40;;;;;;;20.02;7.55;;;;;;;;;;1033195;28;20042;-22
2023/04/05 02:01:11;;;;;;;28.27;8.77;;;;;;;;;;1032285;28;20034;-24
2023/04/05 02:01:41;;;;;;;24.02;10.30;;;;;;;;;;1034072;28;20037;-22
2023/04/05 02:02:12;;;;;;;26.27;10.57;;;;;;;;;;1032180;28;20562;-23
2023/04/05 02:02:42;;;;;;;22.92;8.20;;;;;;;;;;1033890;28;20556;-25
2023/04/05 02:03:13;;;;;;;15.80;6.20;;;;;;;;;;1033473;28;20520;-21
2023/04/05 02:03:44;;;;;;;31.80;7.95;;;;;;;;;;1033218;28;20040;-21
2023/04/05 02:04:14;;;;;;;18.15;8.27;;;;;;;;;;1027189;28;20026;-20
2023/04/05 02:04:45;;;;;;;13.52;8.25;;;;;;;;;;1030268;28;20036;-20
2023/04/05 02:05:17;;;;;;;34.25;7.88;;;;;;;;;;1031893;28;20026;-22
2023/04/05 02:05:48;;;;;;;21.08;9.25;;;;;;;;;;1031090;28;20889;-25
2023/04/05 02:06:19;;;;;;;13.40;7.95;;;;;;;;;;1027653;28;20018;-25
2023/04/05 02:06:50;;;;;;;26.65;7.57;;;;;;;;;;1032293;28;20458;-25
2023/04/05 02:07:23;;;;;;;12.27;7.88;;;;;;;;;;1031414;28;20389;-24
2023/04/05 02:07:53;;;;;;;9.57;5.88;;;;;;;;;;1032931;28;20048;-23
2023/04/05 02:08:24;;;;;;;18.17;6.90;;;;;;;;;;1029244;28;20414;-23
2023/04/05 02:08:55;;;;;;;13.25;6.38;;;;;;;;;;1032204;28;20037;-23
2023/04/05 02:09:25;;;;;;;20.60;7.35;;;;;;;;;;1031786;28;20040;-22
2023/04/05 02:09:56;;;;;;;22.50;7.03;;;;;;;;;;1032054;28;20042;-23
2023/04/05 02:10:27;;;;;;;11.38;5.90;;;;;;;;;;1030933;28;20021;-23
2023/04/05 02:10:57;;;;;;;15.85;6.80;;;;;;;;;;1027499;28;20026;-22
2023/04/05 02:11:28;;;;;;;30.40;7.57;;;;;;;;;;1027616;28;20044;-20
2023/04/05 02:11:58;;;;;;;24.17;5.65;;;;;;;;;;1028265;28;20026;-22
2023/04/05 02:12:29;;;;;;;37.03;8.50;;;;;;;;;;1030360;28;20030;-22
2023/04/05 02:13:00;;;;;;;11.57;5.72;;;;;;;;;;1032565;28;20057;-22
2023/04/05 02:13:30;;;;;;;13.18;3.70;;;;;;;;;;1031033;28;20501;-20
2023/04/05 02:14:01;;;;;;;36.70;6.22;;;;;;;;;;1028095;28;20061;-20
2023/04/05 02:14:34;;;;;;;4.80;2.13;;;;;;;;;;1027581;28;20031;-22
2023/04/05 02:15:05;;;;;;;10.15;4.72;;;;;;;;;;1035308;28;20029;-22
2023/04/05 02:15:36;;;;;;;9.43;3.35;;;;;;;;;;1037133;28;20033;-23
2023/04/05 02:16:07;;;;;;;12.48;3.70;;;;;;;;;;1039667;28;20052;-22
2023/04/05 02:16:38;;;;;;;6.18;3.85;;;;;;;;;;1038904;28;20029;-22
2023/04/05 02:17:08;;;;;;;13.23;4.72;;;;;;;;;;1032053;28;20124;-25
2023/04/05 02:17:39;;;;;;;8.15;5.72;;;;;;;;;;1029390;28;20033;-25
2023/04/05 02:18:09;;;;;;;10.95;5.50;;;;;;;;;;1030428;28;20033;-23
2023/04/05 02:18:40;;;;;;;9.70;5.07;;;;;;;;;;1032691;28;20784;-24
2023/04/05 02:19:12;;;;;;;7.22;3.03;;;;;;;;;;1028377;28;20286;-22
2023/04/05 02:19:45;;;;;;;6.53;3.47;;;;;;;;;;1030406;28;20026;-22
2023/04/05 02:20:17;;;;;;;9.32;3.40;;;;;;;;;;1029276;28;20030;-24
2023/04/05 02:20:48;;;;;;;11.02;3.00;;;;;;;;;;1031718;28;20140;-21
2023/04/05 02:21:20;;;;;;;11.05;4.22;;;;;;;;;;1031687;28;20571;-23
2023/04/05 02:21:55;;;;;;;24.50;4.80;;;;;;;;;;1030996;28;20454;-23
2023/04/05 02:22:26;;;;;;;19.77;3.67;;;;;;;;;;1029587;28;20594;-23
2023/04/05 02:22:57;;;;;;;13.90;4.65;;;;;;;;;;1031874;28;20041;-24
2023/04/05 02:23:29;;;;;;;20.52;3.45;;;;;;;;;;1031107;28;20038;-24
2023/04/05 02:23:59;;;;;;;15.48;2.92;;;;;;;;;;1032644;28;20455;-24
2023/04/05 02:24:30;;;;;;;16.38;2.72;;;;;;;;;;1031218;28;20030;-22
2023/04/05 02:25:02;;;;;;;7.13;3.85;;;;;;;;;;1032313;28;20022;-24
2023/04/05 02:25:33;;;;;;;16.23;4.32;;;;;;;;;;1031165;28;20037;-24
2023/04/05 02:26:04;;;;;;;8.80;3.63;;;;;;;;;;1029834;28;20029;-21
2023/04/05 02:26:34;;;;;;;7.13;2.90;;;;;;;;;;1028256;28;20133;-22
2023/04/05 02:27:06;;;;;;;17.30;4.25;;;;;;;;;;1029425;28;20033;-24
2023/04/05 02:27:36;;;;;;;7.30;4.72;;;;;;;;;;1030931;28;20486;-22
2023/04/05 02:28:08;;;;;;;6.28;4.00;;;;;;;;;;1031572;28;20128;-21
2023/04/05 02:28:39;;;;;;;5.05;3.53;;;;;;;;;;1032102;28;20416;-23
2023/04/05 02:29:14;;;;;;;10.75;1.92;;;;;;;;;;1030432;28;20085;-23
2023/04/05 02:29:45;;;;;;;10.65;4.63;;;;;;;;;;1031719;28;20025;-24
2023/04/05 02:30:16;;;;;;;8.98;4.15;;;;;;;;;;1030194;28;20524;-22
2023/04/05 02:30:47;;;;;;;9.55;2.42;;;;;;;;;;1032013;28;20056;-24
2023/04/05 02:31:18;;;;;;;11.10;4.15;;;;;;;;;;1027038;28;20038;-25
2023/04/05 02:31:50;;;;;;;14.70;3.63;;;;;;;;;;1023657;28;20022;-24
2023/04/05 02:32:21;;;;;;;8.57;3.38;;;;;;;;;;1027449;28;20157;-24
2023/04/05 02:32:52;;;;;;;3.90;2.97;;;;;;;;;;1027597;28;20033;-26
2023/04/05 02:33:24;;;;;;;7.13;3.47;;;;;;;;;;1027541;28;20502;-20
2023/04/05 02:33:56;;;;;;;11.90;2.88;;;;;;;;;;1030052;28;20033;-24
2023/04/05 02:34:27;;;;;;;5.32;2.53;;;;;;;;;;1028097;28;20140;-24
2023/04/05 02:34:58;;;;;;;7.57;3.80;;;;;;;;;;1030818;28;20065;-23
2023/04/05 02:35:28;;;;;;;12.55;4.22;;;;;;;;;;1034758;28;20036;-24
2023/04/05 02:35:59;;;;;;;17.90;6.38;;;;;;;;;;1032102;28;20033;-23
2023/04/05 02:36:33;;;;;;;8.05;4.30;;;;;;;;;;1031044;28;20029;-23
2023/04/05 02:37:06;;;;;;;10.23;3.67;;;;;;;;;;1030990;28;20014;-23
2023/04/05 02:37:37;;;;;;;12.88;3.42;;;;;;;;;;1027423;28;20065;-23
2023/04/05 02:38:08;;;;;;;9.90;4.63;;;;;;;;;;1025959;28;20035;-23
2023/04/05 02:38:39;;;;;;;12.65;5.00;;;;;;;;;;1027590;28;20430;-23
2023/04/05 02:39:12;;;;;;;6.55;3.95;;;;;;;;;;1032881;28;20523;-25
2023/04/05 02:39:42;;;;;;;7.97;4.60;;;;;;;;;;1031358;28;20041;-20
2023/04/05 02:40:14;;;;;;;13.63;5.47;;;;;;;;;;1029893;28;20590;-22
2023/04/05 02:40:48;;;;;;;18.23;3.95;;;;;;;;;;1035412;28;20521;-24
2023/04/05 02:41:22;;;;;;;19.90;5.38;;;;;;;;;;1032898;28;20469;-24
2023/04/05 02:41:55;;;;;;;11.45;4.50;;;;;;;;;;1026090;28;20115;-24
2023/04/05 02:42:27;;;;;;;15.38;4.65;;;;;;;;;;1032147;28;20041;-24
2023/04/05 02:43:01;;;;;;;47.65;5.95;;;;;;;;;;1036056;28;20642;-23
2023/04/05 02:43:34;;;;;;;8.90;5.13;;;;;;;;;;1031237;28;20124;-25
2023/04/05 02:44:05;;;;;;;9.35;3.30;;;;;;;;;;1026576;28;20591;-25
2023/04/05 02:44:35;;;;;;;7.28;2.80;;;;;;;;;;1026718;28;20074;-22
2023/04/05 02:45:07;;;;;;;3.08;2.83;;;;;;;;;;1025137;28;20034;-24
2023/04/05 02:45:37;;;;;;;6.95;3.67;;;;;;;;;;1028023;28;20038;-23
2023/04/05 02:46:08;;;;;;;3.72;3.13;;;;;;;;;;1028265;28;20072;-23
2023/04/05 02:46:39;;;;;;;5.72;3.88;;;;;;;;;;1025023;28;20041;-25
2023/04/05 02:47:09;;;;;;;7.57;3.67;;;;;;;;;;1030767;28;20382;-24
2023/04/05 02:47:40;;;;;;;13.57;5.60;;;;;;;;;;1032116;28;20773;-24
2023/04/05 02:48:11;;;;;;;16.77;3.70;;;;;;;;;;1029957;28;20088;-24
2023/04/05 02:48:42;;;;;;;3.92;2.42;;;;;;;;;;1031585;28;20568;-23
2023/04/05 02:49:13;;;;;;;6.80;4.00;;;;;;;;;;1031816;28;20041;-22
2023/04/05 02:49:44;;;;;;;9.20;3.65;;;;;;;;;;1031022;28;20026;-22
2023/04/05 02:50:19;;;;;;;20.38;3.97;;;;;;;;;;1027755;28;20100;-23
2023/04/05 02:50:50;;;;;;;8.27;3.03;;;;;;;;;;1026481;28;20125;-22
2023/04/05 02:51:20;;;;;;;15.68;4.80;;;;;;;;;;1030849;28;20583;-25
2023/04/05 02:51:51;;;;;;;10.13;2.63;;;;;;;;;;1029876;28;20034;-24
2023/04/05 02:52:22;;;;;;;36.72;4.03;;;;;;;;;;1029850;28;20083;-24
2023/04/05 02:52:53;;;;;;;17.13;4.28;;;;;;;;;;1030042;28;20040;-24
2023/04/05 02:53:23;;;;;;;17.17;3.83;;;;;;;;;;1029389;28;20449;-22
2023/04/05 02:53:54;;;;;;;16.27;3.67;;;;;;;;;;1030610;28;20459;-23
2023/04/05 02:54:25;;;;;;;6.80;4.15;;;;;;;;;;1028553;28;20628;-24
2023/04/05 02:54:57;;;;;;;8.60;4.53;;;;;;;;;;1029902;28;20869;-23
2023/04/05 02:55:29;;;;;;;24.58;5.55;;;;;;;;;;1031592;28;20034;-24
2023/04/05 02:56:00;;;;;;;17.95;4.85;;;;;;;;;;1028401;28;20143;-24
2023/04/05 02:56:31;;;;;;;9.35;3.67;;;;;;;;;;1030422;28;20029;-23
2023/04/05 02:57:05;;;;;;;22.08;3.35;;;;;;;;;;1031004;28;20038;-24
2023/04/05 02:57:38;;;;;;;24.83;4.55;;;;;;;;;;1032280;28;20056;-24
2023/04/05 02:58:09;;;;;;;21.73;4.45;;;;;;;;;;1030319;28;20117;-24
2023/04/05 02:58:42;;;;;;;16.17;4.63;;;;;;;;;;1027698;28;20049;-24
2023/04/05 02:59:14;;;;;;;25.33;3.47;;;;;;;;;;1028454;28;20018;-24
2023/04/05 02:59:45;;;;;;;10.70;4.38;;;;;;;;;;1031563;28;20037;-24
2023/04/05 03:00:16;;;;;;;13.25;4.00;;;;;;;;;;1030814;28;20025;-24
2023/04/05 03:00:50;;;;;;;11.13;3.58;;;;;;;;;;1030025;28;20414;-25
2023/04/05 03:01:23;;;;;;;12.10;5.03;;;;;;;;;;1032973;28;20037;-24
2023/04/05 03:01:55;;;;;;;13.23;4.43;;;;;;;;;;1028818;28;20026;-24
2023/04/05 03:02:26;;;;;;;18.02;3.60;;;;;;;;;;1027003;28;20037;-24
2023/04/05 03:02:59;;;;;;;17.65;2.83;;;;;;;;;;1026245;28;20730;-24
2023/04/05 03:03:30;;;;;;;8.85;5.60;;;;;;;;;;1024456;28;20085;-24
2023/04/05 03:04:01;;;;;;;7.03;3.35;;;;;;;;;;1027110;28;20081;-24
2023/04/05 03:04:37;;;;;;;23.65;5.45;;;;;;;;;;1030831;28;20076;-24
2023/04/05 03:05:08;;;;;;;6.55;4.28;;;;;;;;;;1027061;28;20315;-24
2023/04/05 03:05:40;;;;;;;9.55;3.65;;;;;;;;;;1031851;28;20071;-25
2023/04/05 03:06:13;;;;;;;14.48;4.00;;;;;;;;;;1030184;28;20117;-24
2023/04/05 03:06:48;;;;;;;9.93;4.35;;;;;;;;;;1025361;28;20034;-24
2023/04/05 03:07:28;;;;;;;8.38;3.05;;;;;;;;;;1031764;28;20034;-23
2023/04/05 03:08:01;;;;;;;20.63;4.80;;;;;;;;;;1033518;28;20030;-24
2023/04/05 03:08:31;;;;;;;21.42;6.25;;;;;;;;;;1029693;28;20022;-22
2023/04/05 03:09:03;;;;;;;11.75;7.28;;;;;;;;;;1030988;28;20371;-24
2023/04/05 03:09:37;;;;;;;17.58;6.63;;;;;;;;;;1029278;28;20506;-24
2023/04/05 03:10:08;;;;;;;23.60;9.57;;;;;;;;;;1035750;28;20131;-24
2023/04/05 03:10:43;;;;;;;17.33;7.80;;;;;;;;;;1039781;28;20039;-24
2023/04/05 03:11:14;;;;;;;21.45;9.05;;;;;;;;;;1037168;28;20044;-21
2023/04/05 03:11:45;;;;;;;44.60;13.25;;;;;;;;;;1035960;28;20022;-24
2023/04/05 03:12:16;;;;;;;24.80;11.90;;;;;;;;;;1032266;28;20049;-24
2023/04/05 03:12:47;;;;;;;28.48;12.48;;;;;;;;;;1032646;28;20073;-24
2023/04/05 03:13:17;;;;;;;31.05;11.48;;;;;;;;;;1033046;28;20133;-24